Paxville, South Carolina
Current Conditions -  °F | °C
As of 2:35 PM on Friday 28 Nov 2014 (Local Time) from KCKI Reporting Station
Scattered Clouds Scattered Clouds  
Wind Chill: 46°   Ceiling: Unl
Heat Index: 48°   Visibility: 10mi
Dew Point: 23°   Wind: 5mph
Humidity: 37%   Direction: 300°WNW
Pressure: 30.32"   Gusts: NA
Location:  33.6434°N, 80.1966°W
Report Text: KCKI 281935Z AUTO 30004KT 10SM SCT002 09/M05 A3032 RMK AO2
Loading
Personal Weather Stations






























Interactive Weather Map New forecast layout! Learn more

10-Day Weather Forecast

Advertisements
Track Severe Weather on mobile